sensor_id;sensor_type;location;lat;lon;timestamp;P1;durP1;ratioP1;P2;durP2;ratioP2
38083;SDS011;23894;51.466;7.444;2023-07-13T00:00:46;5.03;;;1.95;;
38083;SDS011;23894;51.466;7.444;2023-07-13T00:04:47;8.32;;;1.98;;
38083;SDS011;23894;51.466;7.444;2023-07-13T00:06:49;6.35;;;1.95;;
38083;SDS011;23894;51.466;7.444;2023-07-13T00:08:50;5.68;;;2.08;;
38083;SDS011;23894;51.466;7.444;2023-07-13T00:12:54;8.38;;;2.10;;
38083;SDS011;23894;51.466;7.444;2023-07-13T00:14:59;6.30;;;2.20;;
38083;SDS011;23894;51.466;7.444;2023-07-13T00:17:00;10.07;;;2.33;;
38083;SDS011;23894;51.466;7.444;2023-07-13T00:21:02;6.18;;;1.85;;
38083;SDS011;23894;51.466;7.444;2023-07-13T00:23:06;7.78;;;1.95;;
38083;SDS011;23894;51.466;7.444;2023-07-13T00:27:08;4.47;;;1.70;;
38083;SDS011;23894;51.466;7.444;2023-07-13T00:29:09;5.20;;;1.90;;
38083;SDS011;23894;51.466;7.444;2023-07-13T00:31:11;4.95;;;1.63;;
38083;SDS011;23894;51.466;7.444;2023-07-13T00:33:14;6.95;;;1.70;;
38083;SDS011;23894;51.466;7.444;2023-07-13T00:37:16;5.78;;;1.77;;
38083;SDS011;23894;51.466;7.444;2023-07-13T00:41:18;6.90;;;2.03;;
38083;SDS011;23894;51.466;7.444;2023-07-13T00:49:22;4.65;;;1.73;;
38083;SDS011;23894;51.466;7.444;2023-07-13T00:51:25;4.88;;;2.03;;
38083;SDS011;23894;51.466;7.444;2023-07-13T00:53:28;5.35;;;1.90;;
38083;SDS011;23894;51.466;7.444;2023-07-13T00:55:30;4.90;;;1.88;;
38083;SDS011;23894;51.466;7.444;2023-07-13T00:59:32;4.00;;;1.67;;
38083;SDS011;23894;51.466;7.444;2023-07-13T01:01:36;5.78;;;1.70;;
38083;SDS011;23894;51.466;7.444;2023-07-13T01:03:37;5.45;;;1.98;;
38083;SDS011;23894;51.466;7.444;2023-07-13T01:05:40;4.97;;;1.80;;
38083;SDS011;23894;51.466;7.444;2023-07-13T01:09:42;6.75;;;1.83;;
38083;SDS011;23894;51.466;7.444;2023-07-13T01:11:44;5.93;;;2.05;;
38083;SDS011;23894;51.466;7.444;2023-07-13T01:15:47;6.47;;;2.22;;
38083;SDS011;23894;51.466;7.444;2023-07-13T01:17:48;7.78;;;2.20;;
38083;SDS011;23894;51.466;7.444;2023-07-13T01:21:50;6.70;;;1.92;;
38083;SDS011;23894;51.466;7.444;2023-07-13T01:23:51;6.30;;;2.00;;
38083;SDS011;23894;51.466;7.444;2023-07-13T01:27:55;6.65;;;2.03;;
38083;SDS011;23894;51.466;7.444;2023-07-13T01:32:03;5.75;;;1.45;;
38083;SDS011;23894;51.466;7.444;2023-07-13T01:36:05;4.82;;;1.63;;
38083;SDS011;23894;51.466;7.444;2023-07-13T01:38:06;6.93;;;1.80;;
38083;SDS011;23894;51.466;7.444;2023-07-13T01:40:08;5.68;;;1.70;;
38083;SDS011;23894;51.466;7.444;2023-07-13T01:42:09;5.25;;;1.58;;
38083;SDS011;23894;51.466;7.444;2023-07-13T01:46:11;4.97;;;1.67;;
38083;SDS011;23894;51.466;7.444;2023-07-13T01:50:13;3.97;;;1.65;;
38083;SDS011;23894;51.466;7.444;2023-07-13T01:54:15;7.05;;;1.98;;
38083;SDS011;23894;51.466;7.444;2023-07-13T01:58:17;5.70;;;1.73;;
38083;SDS011;23894;51.466;7.444;2023-07-13T02:02:18;4.65;;;1.75;;
38083;SDS011;23894;51.466;7.444;2023-07-13T02:06:20;5.15;;;1.75;;
38083;SDS011;23894;51.466;7.444;2023-07-13T02:10:22;7.05;;;1.90;;
38083;SDS011;23894;51.466;7.444;2023-07-13T02:14:24;6.25;;;1.65;;
38083;SDS011;23894;51.466;7.444;2023-07-13T02:18:26;6.65;;;1.75;;
38083;SDS011;23894;51.466;7.444;2023-07-13T02:22:28;8.85;;;2.03;;
38083;SDS011;23894;51.466;7.444;2023-07-13T02:26:30;6.20;;;1.50;;
38083;SDS011;23894;51.466;7.444;2023-07-13T02:30:32;7.80;;;1.83;;
38083;SDS011;23894;51.466;7.444;2023-07-13T02:32:34;6.45;;;2.03;;
38083;SDS011;23894;51.466;7.444;2023-07-13T02:34:36;6.32;;;1.80;;
38083;SDS011;23894;51.466;7.444;2023-07-13T02:36:37;8.77;;;2.50;;
38083;SDS011;23894;51.466;7.444;2023-07-13T02:40:39;6.10;;;2.28;;
38083;SDS011;23894;51.466;7.444;2023-07-13T02:44:41;6.75;;;1.77;;
38083;SDS011;23894;51.466;7.444;2023-07-13T02:48:43;6.45;;;1.88;;
38083;SDS011;23894;51.466;7.444;2023-07-13T02:52:44;8.38;;;1.88;;
38083;SDS011;23894;51.466;7.444;2023-07-13T02:56:46;5.13;;;1.67;;
38083;SDS011;23894;51.466;7.444;2023-07-13T02:58:47;7.18;;;2.13;;
38083;SDS011;23894;51.466;7.444;2023-07-13T03:02:50;6.55;;;1.90;;
38083;SDS011;23894;51.466;7.444;2023-07-13T03:06:51;8.20;;;1.95;;
38083;SDS011;23894;51.466;7.444;2023-07-13T03:11:03;8.27;;;2.20;;
38083;SDS011;23894;51.466;7.444;2023-07-13T03:13:05;7.25;;;2.20;;
38083;SDS011;23894;51.466;7.444;2023-07-13T03:17:07;6.55;;;1.88;;
38083;SDS011;23894;51.466;7.444;2023-07-13T03:21:09;5.95;;;1.75;;
38083;SDS011;23894;51.466;7.444;2023-07-13T03:23:10;7.18;;;1.77;;
38083;SDS011;23894;51.466;7.444;2023-07-13T03:27:12;5.35;;;2.08;;
38083;SDS011;23894;51.466;7.444;2023-07-13T03:29:13;7.35;;;1.73;;
38083;SDS011;23894;51.466;7.444;2023-07-13T03:33:15;7.82;;;1.80;;
38083;SDS011;23894;51.466;7.444;2023-07-13T03:37:17;4.95;;;1.75;;
38083;SDS011;23894;51.466;7.444;2023-07-13T03:41:19;4.10;;;1.42;;
38083;SDS011;23894;51.466;7.444;2023-07-13T03:43:20;5.22;;;1.80;;
38083;SDS011;23894;51.466;7.444;2023-07-13T03:47:22;7.72;;;2.05;;
38083;SDS011;23894;51.466;7.444;2023-07-13T03:51:24;7.10;;;2.20;;
38083;SDS011;23894;51.466;7.444;2023-07-13T03:55:26;5.30;;;2.10;;
38083;SDS011;23894;51.466;7.444;2023-07-13T03:57:27;7.90;;;2.30;;
38083;SDS011;23894;51.466;7.444;2023-07-13T04:01:29;4.55;;;1.60;;
38083;SDS011;23894;51.466;7.444;2023-07-13T04:05:32;9.50;;;2.15;;
38083;SDS011;23894;51.466;7.444;2023-07-13T04:07:35;6.75;;;1.80;;
38083;SDS011;23894;51.466;7.444;2023-07-13T04:11:37;5.75;;;2.20;;
38083;SDS011;23894;51.466;7.444;2023-07-13T04:15:39;7.30;;;2.10;;
38083;SDS011;23894;51.466;7.444;2023-07-13T04:17:41;7.22;;;2.03;;
38083;SDS011;23894;51.466;7.444;2023-07-13T04:21:43;6.03;;;1.98;;
38083;SDS011;23894;51.466;7.444;2023-07-13T04:23:44;7.85;;;2.38;;
38083;SDS011;23894;51.466;7.444;2023-07-13T04:27:49;8.65;;;2.42;;
38083;SDS011;23894;51.466;7.444;2023-07-13T04:29:50;5.28;;;1.98;;
38083;SDS011;23894;51.466;7.444;2023-07-13T04:33:52;7.15;;;1.95;;
38083;SDS011;23894;51.466;7.444;2023-07-13T04:37:56;6.57;;;2.25;;
38083;SDS011;23894;51.466;7.444;2023-07-13T04:41:58;7.35;;;2.00;;
38083;SDS011;23894;51.466;7.444;2023-07-13T04:46:08;7.10;;;2.08;;
38083;SDS011;23894;51.466;7.444;2023-07-13T04:50:13;6.60;;;2.22;;
38083;SDS011;23894;51.466;7.444;2023-07-13T04:52:24;9.40;;;2.28;;
38083;SDS011;23894;51.466;7.444;2023-07-13T04:54:25;6.75;;;2.30;;
38083;SDS011;23894;51.466;7.444;2023-07-13T04:56:27;6.53;;;2.10;;
38083;SDS011;23894;51.466;7.444;2023-07-13T04:58:29;7.38;;;2.60;;
38083;SDS011;23894;51.466;7.444;2023-07-13T05:00:30;8.68;;;2.13;;
38083;SDS011;23894;51.466;7.444;2023-07-13T05:02:31;8.50;;;2.40;;
38083;SDS011;23894;51.466;7.444;2023-07-13T05:04:34;8.70;;;2.30;;
38083;SDS011;23894;51.466;7.444;2023-07-13T05:06:37;6.45;;;2.38;;
38083;SDS011;23894;51.466;7.444;2023-07-13T05:08:38;6.60;;;2.15;;
38083;SDS011;23894;51.466;7.444;2023-07-13T05:12:40;11.02;;;2.45;;
38083;SDS011;23894;51.466;7.444;2023-07-13T05:16:42;8.48;;;1.98;;
38083;SDS011;23894;51.466;7.444;2023-07-13T05:18:44;8.02;;;2.17;;
38083;SDS011;23894;51.466;7.444;2023-07-13T05:21:08;6.85;;;2.22;;
38083;SDS011;23894;51.466;7.444;2023-07-13T05:23:09;8.50;;;2.53;;
38083;SDS011;23894;51.466;7.444;2023-07-13T05:27:12;8.52;;;2.50;;
38083;SDS011;23894;51.466;7.444;2023-07-13T05:31:13;6.55;;;2.05;;
38083;SDS011;23894;51.466;7.444;2023-07-13T05:33:15;6.63;;;2.42;;
38083;SDS011;23894;51.466;7.444;2023-07-13T05:37:17;8.32;;;2.20;;
38083;SDS011;23894;51.466;7.444;2023-07-13T05:41:19;7.10;;;2.53;;
38083;SDS011;23894;51.466;7.444;2023-07-13T05:45:20;8.63;;;2.13;;
38083;SDS011;23894;51.466;7.444;2023-07-13T05:49:22;10.45;;;2.65;;
38083;SDS011;23894;51.466;7.444;2023-07-13T05:51:23;8.85;;;2.47;;
38083;SDS011;23894;51.466;7.444;2023-07-13T05:55:25;14.15;;;3.40;;
38083;SDS011;23894;51.466;7.444;2023-07-13T05:59:27;7.68;;;2.67;;
38083;SDS011;23894;51.466;7.444;2023-07-13T06:03:29;12.00;;;2.80;;
38083;SDS011;23894;51.466;7.444;2023-07-13T06:05:30;9.32;;;3.55;;
38083;SDS011;23894;51.466;7.444;2023-07-13T06:07:36;12.50;;;3.47;;
38083;SDS011;23894;51.466;7.444;2023-07-13T06:09:37;8.63;;;3.13;;
38083;SDS011;23894;51.466;7.444;2023-07-13T06:11:38;8.57;;;2.80;;
38083;SDS011;23894;51.466;7.444;2023-07-13T06:15:40;8.13;;;3.10;;
38083;SDS011;23894;51.466;7.444;2023-07-13T06:19:42;11.18;;;4.07;;
38083;SDS011;23894;51.466;7.444;2023-07-13T06:23:47;10.80;;;3.92;;
38083;SDS011;23894;51.466;7.444;2023-07-13T06:25:48;12.20;;;3.28;;
38083;SDS011;23894;51.466;7.444;2023-07-13T06:29:50;11.25;;;3.28;;
38083;SDS011;23894;51.466;7.444;2023-07-13T06:33:51;12.35;;;3.65;;
38083;SDS011;23894;51.466;7.444;2023-07-13T06:37:54;10.68;;;4.07;;
38083;SDS011;23894;51.466;7.444;2023-07-13T06:41:56;11.35;;;3.85;;
38083;SDS011;23894;51.466;7.444;2023-07-13T06:45:58;9.52;;;3.75;;
38083;SDS011;23894;51.466;7.444;2023-07-13T06:47:59;12.80;;;4.00;;
38083;SDS011;23894;51.466;7.444;2023-07-13T06:52:01;11.63;;;4.05;;
38083;SDS011;23894;51.466;7.444;2023-07-13T06:56:03;12.85;;;4.05;;
38083;SDS011;23894;51.466;7.444;2023-07-13T06:58:05;10.40;;;3.47;;
38083;SDS011;23894;51.466;7.444;2023-07-13T07:00:07;9.50;;;3.58;;
38083;SDS011;23894;51.466;7.444;2023-07-13T07:02:10;12.13;;;4.13;;
38083;SDS011;23894;51.466;7.444;2023-07-13T07:04:11;14.70;;;4.45;;
38083;SDS011;23894;51.466;7.444;2023-07-13T07:08:14;11.50;;;3.15;;
38083;SDS011;23894;51.466;7.444;2023-07-13T07:12:15;9.40;;;3.85;;
38083;SDS011;23894;51.466;7.444;2023-07-13T07:16:17;10.05;;;3.08;;
38083;SDS011;23894;51.466;7.444;2023-07-13T07:18:19;11.10;;;3.83;;
38083;SDS011;23894;51.466;7.444;2023-07-13T07:22:21;13.07;;;3.50;;
38083;SDS011;23894;51.466;7.444;2023-07-13T07:24:22;12.73;;;3.50;;
38083;SDS011;23894;51.466;7.444;2023-07-13T07:28:23;9.55;;;2.80;;
38083;SDS011;23894;51.466;7.444;2023-07-13T07:30:25;8.43;;;3.35;;
38083;SDS011;23894;51.466;7.444;2023-07-13T07:34:26;12.68;;;3.30;;
38083;SDS011;23894;51.466;7.444;2023-07-13T07:36:27;8.13;;;2.97;;
38083;SDS011;23894;51.466;7.444;2023-07-13T07:40:29;9.93;;;3.20;;
38083;SDS011;23894;51.466;7.444;2023-07-13T07:42:31;7.57;;;2.83;;
38083;SDS011;23894;51.466;7.444;2023-07-13T07:46:35;12.07;;;3.00;;
38083;SDS011;23894;51.466;7.444;2023-07-13T07:48:41;11.27;;;3.22;;
38083;SDS011;23894;51.466;7.444;2023-07-13T07:52:42;10.73;;;3.20;;
38083;SDS011;23894;51.466;7.444;2023-07-13T07:54:44;10.43;;;3.08;;
38083;SDS011;23894;51.466;7.444;2023-07-13T07:58:46;9.88;;;2.65;;
38083;SDS011;23894;51.466;7.444;2023-07-13T08:02:47;11.30;;;3.30;;
38083;SDS011;23894;51.466;7.444;2023-07-13T08:06:49;8.80;;;2.80;;
38083;SDS011;23894;51.466;7.444;2023-07-13T08:10:51;9.88;;;2.67;;
38083;SDS011;23894;51.466;7.444;2023-07-13T08:14:53;14.90;;;3.08;;
38083;SDS011;23894;51.466;7.444;2023-07-13T08:16:57;11.10;;;2.80;;
38083;SDS011;23894;51.466;7.444;2023-07-13T08:18:58;17.80;;;3.40;;
38083;SDS011;23894;51.466;7.444;2023-07-13T08:23:00;10.90;;;3.30;;
38083;SDS011;23894;51.466;7.444;2023-07-13T08:25:01;8.20;;;2.40;;
38083;SDS011;23894;51.466;7.444;2023-07-13T08:29:02;6.22;;;2.40;;
38083;SDS011;23894;51.466;7.444;2023-07-13T08:33:04;8.50;;;2.85;;
38083;SDS011;23894;51.466;7.444;2023-07-13T08:37:06;9.77;;;2.80;;
38083;SDS011;23894;51.466;7.444;2023-07-13T08:39:08;8.82;;;2.65;;
38083;SDS011;23894;51.466;7.444;2023-07-13T08:41:10;8.07;;;2.83;;
38083;SDS011;23894;51.466;7.444;2023-07-13T08:43:13;7.13;;;2.55;;
38083;SDS011;23894;51.466;7.444;2023-07-13T08:45:23;9.63;;;2.80;;
38083;SDS011;23894;51.466;7.444;2023-07-13T08:47:24;9.57;;;2.80;;
38083;SDS011;23894;51.466;7.444;2023-07-13T08:49:26;9.98;;;3.10;;
38083;SDS011;23894;51.466;7.444;2023-07-13T08:53:34;6.57;;;2.45;;
38083;SDS011;23894;51.466;7.444;2023-07-13T08:55:37;7.55;;;2.70;;
38083;SDS011;23894;51.466;7.444;2023-07-13T08:57:39;9.38;;;2.75;;
38083;SDS011;23894;51.466;7.444;2023-07-13T08:59:40;6.95;;;2.60;;
38083;SDS011;23894;51.466;7.444;2023-07-13T09:06:08;7.70;;;2.30;;
38083;SDS011;23894;51.466;7.444;2023-07-13T09:10:17;8.07;;;2.65;;
38083;SDS011;23894;51.466;7.444;2023-07-13T09:12:24;11.13;;;3.17;;
38083;SDS011;23894;51.466;7.444;2023-07-13T09:14:37;7.78;;;2.60;;
38083;SDS011;23894;51.466;7.444;2023-07-13T09:16:40;7.38;;;2.58;;
38083;SDS011;23894;51.466;7.444;2023-07-13T09:18:42;7.53;;;2.80;;
38083;SDS011;23894;51.466;7.444;2023-07-13T09:20:46;10.02;;;3.10;;
38083;SDS011;23894;51.466;7.444;2023-07-13T09:22:49;8.85;;;2.60;;
38083;SDS011;23894;51.466;7.444;2023-07-13T09:25:05;7.30;;;2.53;;
38083;SDS011;23894;51.466;7.444;2023-07-13T09:27:17;14.45;;;3.13;;
38083;SDS011;23894;51.466;7.444;2023-07-13T09:29:22;9.27;;;2.75;;
38083;SDS011;23894;51.466;7.444;2023-07-13T09:31:39;8.80;;;3.30;;
38083;SDS011;23894;51.466;7.444;2023-07-13T09:33:42;8.45;;;3.35;;
38083;SDS011;23894;51.466;7.444;2023-07-13T09:35:43;9.38;;;3.00;;
38083;SDS011;23894;51.466;7.444;2023-07-13T09:37:44;7.13;;;2.40;;
38083;SDS011;23894;51.466;7.444;2023-07-13T09:39:46;7.28;;;2.42;;
38083;SDS011;23894;51.466;7.444;2023-07-13T09:41:48;9.48;;;2.83;;
38083;SDS011;23894;51.466;7.444;2023-07-13T09:44:07;9.32;;;3.00;;
38083;SDS011;23894;51.466;7.444;2023-07-13T09:46:21;9.02;;;2.80;;
38083;SDS011;23894;51.466;7.444;2023-07-13T09:48:22;5.43;;;2.20;;
38083;SDS011;23894;51.466;7.444;2023-07-13T09:50:24;8.40;;;2.17;;
38083;SDS011;23894;51.466;7.444;2023-07-13T09:52:25;7.75;;;2.33;;
38083;SDS011;23894;51.466;7.444;2023-07-13T09:54:27;9.68;;;2.65;;
38083;SDS011;23894;51.466;7.444;2023-07-13T09:56:28;7.40;;;2.42;;
38083;SDS011;23894;51.466;7.444;2023-07-13T09:58:30;7.38;;;2.55;;
38083;SDS011;23894;51.466;7.444;2023-07-13T10:00:31;7.25;;;2.53;;
38083;SDS011;23894;51.466;7.444;2023-07-13T10:02:33;12.68;;;3.05;;
38083;SDS011;23894;51.466;7.444;2023-07-13T10:04:37;6.43;;;2.22;;
38083;SDS011;23894;51.466;7.444;2023-07-13T10:06:38;7.93;;;2.38;;
38083;SDS011;23894;51.466;7.444;2023-07-13T10:08:44;7.40;;;2.70;;
38083;SDS011;23894;51.466;7.444;2023-07-13T10:10:45;7.65;;;2.45;;
38083;SDS011;23894;51.466;7.444;2023-07-13T10:12:46;10.45;;;2.75;;
38083;SDS011;23894;51.466;7.444;2023-07-13T10:14:48;9.30;;;2.22;;
38083;SDS011;23894;51.466;7.444;2023-07-13T10:16:49;7.22;;;2.50;;
38083;SDS011;23894;51.466;7.444;2023-07-13T10:18:57;8.45;;;2.72;;
38083;SDS011;23894;51.466;7.444;2023-07-13T10:21:09;7.13;;;2.38;;
38083;SDS011;23894;51.466;7.444;2023-07-13T10:23:13;6.25;;;2.60;;
38083;SDS011;23894;51.466;7.444;2023-07-13T10:25:17;6.97;;;2.70;;
38083;SDS011;23894;51.466;7.444;2023-07-13T10:27:19;6.57;;;2.75;;
38083;SDS011;23894;51.466;7.444;2023-07-13T10:29:25;6.82;;;2.53;;
38083;SDS011;23894;51.466;7.444;2023-07-13T10:31:27;8.35;;;2.38;;
38083;SDS011;23894;51.466;7.444;2023-07-13T10:33:28;14.48;;;3.05;;
38083;SDS011;23894;51.466;7.444;2023-07-13T10:35:29;9.63;;;2.80;;
38083;SDS011;23894;51.466;7.444;2023-07-13T10:38:15;9.23;;;2.50;;
38083;SDS011;23894;51.466;7.444;2023-07-13T10:39:57;9.32;;;2.63;;
38083;SDS011;23894;51.466;7.444;2023-07-13T10:42:01;8.05;;;2.13;;
38083;SDS011;23894;51.466;7.444;2023-07-13T10:44:04;6.53;;;2.50;;
38083;SDS011;23894;51.466;7.444;2023-07-13T10:46:06;8.18;;;2.70;;
38083;SDS011;23894;51.466;7.444;2023-07-13T10:48:09;8.02;;;2.40;;
38083;SDS011;23894;51.466;7.444;2023-07-13T10:50:17;6.70;;;2.20;;
38083;SDS011;23894;51.466;7.444;2023-07-13T10:54:40;8.57;;;2.42;;
38083;SDS011;23894;51.466;7.444;2023-07-13T10:56:43;7.72;;;2.67;;
38083;SDS011;23894;51.466;7.444;2023-07-13T10:58:44;11.23;;;2.50;;
38083;SDS011;23894;51.466;7.444;2023-07-13T11:00:51;10.77;;;2.60;;
38083;SDS011;23894;51.466;7.444;2023-07-13T11:02:57;6.57;;;2.63;;
38083;SDS011;23894;51.466;7.444;2023-07-13T11:05:01;6.65;;;2.33;;
38083;SDS011;23894;51.466;7.444;2023-07-13T11:07:20;8.43;;;2.30;;
38083;SDS011;23894;51.466;7.444;2023-07-13T11:15:48;7.47;;;2.10;;
38083;SDS011;23894;51.466;7.444;2023-07-13T11:17:50;8.57;;;2.70;;
38083;SDS011;23894;51.466;7.444;2023-07-13T11:19:51;9.05;;;2.30;;
38083;SDS011;23894;51.466;7.444;2023-07-13T11:28:31;6.78;;;1.98;;
38083;SDS011;23894;51.466;7.444;2023-07-13T11:30:39;9.07;;;3.08;;
38083;SDS011;23894;51.466;7.444;2023-07-13T11:32:42;5.77;;;2.00;;
38083;SDS011;23894;51.466;7.444;2023-07-13T11:34:43;6.95;;;2.47;;
38083;SDS011;23894;51.466;7.444;2023-07-13T11:36:45;9.82;;;2.42;;
38083;SDS011;23894;51.466;7.444;2023-07-13T11:38:57;6.13;;;2.00;;
38083;SDS011;23894;51.466;7.444;2023-07-13T11:41:00;6.15;;;2.30;;
38083;SDS011;23894;51.466;7.444;2023-07-13T11:43:03;7.38;;;2.50;;
38083;SDS011;23894;51.466;7.444;2023-07-13T11:45:20;6.38;;;2.15;;
38083;SDS011;23894;51.466;7.444;2023-07-13T11:47:24;7.55;;;2.13;;
38083;SDS011;23894;51.466;7.444;2023-07-13T11:49:26;6.88;;;2.28;;
38083;SDS011;23894;51.466;7.444;2023-07-13T11:51:32;5.03;;;1.70;;
38083;SDS011;23894;51.466;7.444;2023-07-13T11:53:38;6.25;;;2.13;;
38083;SDS011;23894;51.466;7.444;2023-07-13T11:55:40;5.13;;;2.17;;
38083;SDS011;23894;51.466;7.444;2023-07-13T11:57:43;5.15;;;1.73;;
38083;SDS011;23894;51.466;7.444;2023-07-13T11:59:46;6.10;;;2.03;;
38083;SDS011;23894;51.466;7.444;2023-07-13T12:01:50;8.43;;;1.90;;
38083;SDS011;23894;51.466;7.444;2023-07-13T12:03:52;5.68;;;2.15;;
38083;SDS011;23894;51.466;7.444;2023-07-13T12:05:57;9.00;;;2.20;;
38083;SDS011;23894;51.466;7.444;2023-07-13T12:07:58;5.63;;;1.92;;
38083;SDS011;23894;51.466;7.444;2023-07-13T12:10:41;6.35;;;1.80;;
38083;SDS011;23894;51.466;7.444;2023-07-13T12:12:28;5.47;;;1.80;;
38083;SDS011;23894;51.466;7.444;2023-07-13T12:14:29;7.03;;;1.98;;
38083;SDS011;23894;51.466;7.444;2023-07-13T12:16:37;6.90;;;1.98;;
38083;SDS011;23894;51.466;7.444;2023-07-13T12:18:38;5.55;;;1.70;;
38083;SDS011;23894;51.466;7.444;2023-07-13T12:20:40;4.40;;;1.80;;
38083;SDS011;23894;51.466;7.444;2023-07-13T12:22:41;9.30;;;2.17;;
38083;SDS011;23894;51.466;7.444;2023-07-13T12:24:47;5.13;;;1.95;;
38083;SDS011;23894;51.466;7.444;2023-07-13T12:27:02;7.00;;;2.00;;
38083;SDS011;23894;51.466;7.444;2023-07-13T12:29:05;4.63;;;1.85;;
38083;SDS011;23894;51.466;7.444;2023-07-13T12:31:07;5.55;;;1.70;;
38083;SDS011;23894;51.466;7.444;2023-07-13T12:33:19;6.15;;;1.88;;
38083;SDS011;23894;51.466;7.444;2023-07-13T12:35:20;5.05;;;1.70;;
38083;SDS011;23894;51.466;7.444;2023-07-13T12:37:22;5.03;;;1.67;;
38083;SDS011;23894;51.466;7.444;2023-07-13T12:39:34;5.97;;;1.70;;
38083;SDS011;23894;51.466;7.444;2023-07-13T12:41:37;8.45;;;2.00;;
38083;SDS011;23894;51.466;7.444;2023-07-13T12:43:37;4.07;;;1.42;;
38083;SDS011;23894;51.466;7.444;2023-07-13T12:45:38;7.00;;;1.77;;
38083;SDS011;23894;51.466;7.444;2023-07-13T12:47:40;4.60;;;1.60;;
38083;SDS011;23894;51.466;7.444;2023-07-13T12:49:43;4.95;;;1.70;;
38083;SDS011;23894;51.466;7.444;2023-07-13T12:51:49;5.00;;;1.90;;
38083;SDS011;23894;51.466;7.444;2023-07-13T12:53:56;5.50;;;1.80;;
38083;SDS011;23894;51.466;7.444;2023-07-13T12:55:58;7.30;;;1.75;;
38083;SDS011;23894;51.466;7.444;2023-07-13T12:57:59;5.32;;;1.90;;
38083;SDS011;23894;51.466;7.444;2023-07-13T13:00:03;5.25;;;1.83;;
38083;SDS011;23894;51.466;7.444;2023-07-13T13:02:15;4.60;;;1.50;;
38083;SDS011;23894;51.466;7.444;2023-07-13T13:04:22;5.32;;;1.92;;
38083;SDS011;23894;51.466;7.444;2023-07-13T13:06:27;4.57;;;1.80;;
38083;SDS011;23894;51.466;7.444;2023-07-13T13:08:29;6.25;;;1.92;;
38083;SDS011;23894;51.466;7.444;2023-07-13T13:10:30;6.05;;;1.77;;
38083;SDS011;23894;51.466;7.444;2023-07-13T13:12:31;6.20;;;2.00;;
38083;SDS011;23894;51.466;7.444;2023-07-13T13:14:32;5.43;;;1.73;;
38083;SDS011;23894;51.466;7.444;2023-07-13T13:16:45;7.75;;;1.90;;
38083;SDS011;23894;51.466;7.444;2023-07-13T13:18:49;7.82;;;1.88;;
38083;SDS011;23894;51.466;7.444;2023-07-13T13:20:51;6.25;;;1.83;;
38083;SDS011;23894;51.466;7.444;2023-07-13T13:22:52;6.38;;;1.85;;
38083;SDS011;23894;51.466;7.444;2023-07-13T13:24:53;3.28;;;1.20;;
38083;SDS011;23894;51.466;7.444;2023-07-13T13:26:54;5.53;;;1.70;;
38083;SDS011;23894;51.466;7.444;2023-07-13T13:29:00;5.30;;;1.80;;
38083;SDS011;23894;51.466;7.444;2023-07-13T13:31:01;4.70;;;1.70;;
38083;SDS011;23894;51.466;7.444;2023-07-13T13:33:02;7.65;;;2.05;;
38083;SDS011;23894;51.466;7.444;2023-07-13T13:35:03;4.85;;;1.88;;
38083;SDS011;23894;51.466;7.444;2023-07-13T13:37:09;7.15;;;1.77;;
38083;SDS011;23894;51.466;7.444;2023-07-13T13:39:21;5.60;;;1.92;;
38083;SDS011;23894;51.466;7.444;2023-07-13T13:41:22;5.53;;;1.85;;
38083;SDS011;23894;51.466;7.444;2023-07-13T13:43:25;5.32;;;1.58;;
38083;SDS011;23894;51.466;7.444;2023-07-13T13:45:26;6.60;;;1.73;;
38083;SDS011;23894;51.466;7.444;2023-07-13T13:47:30;11.25;;;3.03;;
38083;SDS011;23894;51.466;7.444;2023-07-13T13:49:32;10.43;;;2.45;;
38083;SDS011;23894;51.466;7.444;2023-07-13T13:51:38;7.70;;;2.10;;
38083;SDS011;23894;51.466;7.444;2023-07-13T13:53:39;8.90;;;2.30;;
38083;SDS011;23894;51.466;7.444;2023-07-13T13:55:40;6.55;;;2.38;;
38083;SDS011;23894;51.466;7.444;2023-07-13T13:57:41;7.07;;;2.05;;
38083;SDS011;23894;51.466;7.444;2023-07-13T13:59:42;7.75;;;2.55;;
38083;SDS011;23894;51.466;7.444;2023-07-13T14:01:44;7.10;;;3.03;;
38083;SDS011;23894;51.466;7.444;2023-07-13T14:03:48;9.15;;;3.10;;
38083;SDS011;23894;51.466;7.444;2023-07-13T14:05:51;7.53;;;2.75;;
38083;SDS011;23894;51.466;7.444;2023-07-13T14:07:52;5.22;;;2.33;;
38083;SDS011;23894;51.466;7.444;2023-07-13T14:09:55;7.20;;;2.85;;
38083;SDS011;23894;51.466;7.444;2023-07-13T14:11:57;5.78;;;2.28;;
38083;SDS011;23894;51.466;7.444;2023-07-13T14:13:58;7.28;;;2.75;;
38083;SDS011;23894;51.466;7.444;2023-07-13T14:16:00;4.53;;;2.25;;
38083;SDS011;23894;51.466;7.444;2023-07-13T14:18:01;8.65;;;3.40;;
38083;SDS011;23894;51.466;7.444;2023-07-13T14:20:02;7.47;;;2.60;;
38083;SDS011;23894;51.466;7.444;2023-07-13T14:22:04;5.05;;;2.55;;
38083;SDS011;23894;51.466;7.444;2023-07-13T14:24:05;6.13;;;2.55;;
38083;SDS011;23894;51.466;7.444;2023-07-13T14:26:09;4.80;;;2.05;;
38083;SDS011;23894;51.466;7.444;2023-07-13T14:28:22;5.63;;;2.25;;
38083;SDS011;23894;51.466;7.444;2023-07-13T14:30:24;6.22;;;2.70;;
38083;SDS011;23894;51.466;7.444;2023-07-13T14:32:25;7.28;;;2.95;;
38083;SDS011;23894;51.466;7.444;2023-07-13T14:34:26;6.50;;;2.67;;
38083;SDS011;23894;51.466;7.444;2023-07-13T14:36:31;8.93;;;2.75;;
38083;SDS011;23894;51.466;7.444;2023-07-13T14:38:33;6.57;;;2.70;;
38083;SDS011;23894;51.466;7.444;2023-07-13T14:40:35;6.35;;;2.38;;
38083;SDS011;23894;51.466;7.444;2023-07-13T14:42:37;7.82;;;2.80;;
38083;SDS011;23894;51.466;7.444;2023-07-13T14:44:38;6.38;;;2.33;;
38083;SDS011;23894;51.466;7.444;2023-07-13T14:46:40;7.75;;;2.50;;
38083;SDS011;23894;51.466;7.444;2023-07-13T14:48:42;5.50;;;2.10;;
38083;SDS011;23894;51.466;7.444;2023-07-13T14:50:44;6.97;;;2.45;;
38083;SDS011;23894;51.466;7.444;2023-07-13T14:52:46;8.05;;;2.70;;
38083;SDS011;23894;51.466;7.444;2023-07-13T14:54:47;5.13;;;2.30;;
38083;SDS011;23894;51.466;7.444;2023-07-13T14:56:49;9.68;;;2.63;;
38083;SDS011;23894;51.466;7.444;2023-07-13T14:58:50;7.25;;;2.80;;
38083;SDS011;23894;51.466;7.444;2023-07-13T15:00:53;20.35;;;4.65;;
38083;SDS011;23894;51.466;7.444;2023-07-13T15:02:55;7.15;;;3.80;;
38083;SDS011;23894;51.466;7.444;2023-07-13T15:04:57;9.23;;;3.95;;
38083;SDS011;23894;51.466;7.444;2023-07-13T15:07:01;9.05;;;4.20;;
38083;SDS011;23894;51.466;7.444;2023-07-13T15:09:07;7.55;;;3.90;;
38083;SDS011;23894;51.466;7.444;2023-07-13T15:11:09;7.70;;;3.83;;
38083;SDS011;23894;51.466;7.444;2023-07-13T15:13:17;7.28;;;4.00;;
38083;SDS011;23894;51.466;7.444;2023-07-13T15:15:18;9.70;;;4.35;;
38083;SDS011;23894;51.466;7.444;2023-07-13T15:17:31;8.60;;;3.83;;
38083;SDS011;23894;51.466;7.444;2023-07-13T15:19:40;6.90;;;3.55;;
38083;SDS011;23894;51.466;7.444;2023-07-13T15:21:41;11.43;;;3.95;;
38083;SDS011;23894;51.466;7.444;2023-07-13T15:23:42;8.75;;;3.65;;
38083;SDS011;23894;51.466;7.444;2023-07-13T15:25:44;8.85;;;3.60;;
38083;SDS011;23894;51.466;7.444;2023-07-13T15:27:45;8.75;;;3.88;;
38083;SDS011;23894;51.466;7.444;2023-07-13T15:29:46;7.82;;;3.72;;
38083;SDS011;23894;51.466;7.444;2023-07-13T15:31:48;8.48;;;3.83;;
38083;SDS011;23894;51.466;7.444;2023-07-13T15:33:50;8.45;;;4.00;;
38083;SDS011;23894;51.466;7.444;2023-07-13T15:35:51;7.28;;;4.00;;
38083;SDS011;23894;51.466;7.444;2023-07-13T15:37:53;12.48;;;4.03;;
38083;SDS011;23894;51.466;7.444;2023-07-13T15:39:54;8.23;;;3.53;;
38083;SDS011;23894;51.466;7.444;2023-07-13T15:41:55;9.18;;;3.75;;
38083;SDS011;23894;51.466;7.444;2023-07-13T15:43:58;8.27;;;3.38;;
38083;SDS011;23894;51.466;7.444;2023-07-13T15:45:59;7.78;;;3.15;;
38083;SDS011;23894;51.466;7.444;2023-07-13T15:48:00;7.63;;;3.30;;
38083;SDS011;23894;51.466;7.444;2023-07-13T15:50:01;8.18;;;3.35;;
38083;SDS011;23894;51.466;7.444;2023-07-13T15:52:03;7.22;;;3.22;;
38083;SDS011;23894;51.466;7.444;2023-07-13T15:54:04;7.93;;;3.03;;